Time;durP1;ratioP1;P1;durP2;ratioP2;P2;SDS_P1;SDS_P2;PMS_P1;PMS_P2;Temp;Humidity;BMP_temperature;BMP_pressure;BME280_temperature;BME280_humidity;BME280_pressure;Samples;Min_cycle;Max_cycle;Signal;HPM_P1;HPM_P2
2024/04/08 00:00:42;612024.00;2.04;1054.99;49966.00;0.17;87.13;;;;;20.50;1.00;;;;;;2264135;61;2006;-87
2024/04/08 00:03:08;464813.00;1.55;801.27;66336.00;0.22;115.43;;;;;20.40;1.00;;;;;;2264278;61;1052;-87
2024/04/08 00:05:35;369827.00;1.23;637.94;0.00;0.00;0.62;;;;;20.50;1.00;;;;;;2264251;61;1266;-88
2024/04/08 00:08:01;1407111.00;4.69;2469.52;64312.00;0.21;111.93;;;;;20.70;1.00;;;;;;2263164;61;1385;-85
2024/04/08 00:10:28;903315.00;3.01;1561.94;9040.00;0.03;16.29;;;;;20.80;1.00;;;;;;2262655;61;1846;-86
2024/04/08 00:12:55;117146688.00;390.49;65120256.00;58534.00;0.20;101.94;;;;;21.10;1.00;;;;;;2259917;61;1669;-88
2024/04/08 00:15:22;369798.00;1.23;637.89;0.00;0.00;0.62;;;;;21.40;1.00;;;;;;2278244;41;3652;-86
2024/04/08 00:17:48;406014.00;1.35;700.14;0.00;0.00;0.62;;;;;21.60;1.00;;;;;;2264007;61;1285;-87
2024/04/08 00:20:15;343366.00;1.14;592.46;0.00;0.00;0.62;;;;;21.60;1.00;;;;;;2263899;61;1574;-86
2024/04/08 00:22:42;806388.00;2.69;1392.27;185911.00;0.62;321.67;;;;;21.60;1.00;;;;;;2264040;61;1936;-87
2024/04/08 00:25:10;391100.00;1.30;674.51;60122.00;0.20;104.69;;;;;21.60;1.00;;;;;;2264123;61;1116;-90
2024/04/08 00:27:36;286281.00;0.95;494.34;0.00;0.00;0.62;;;;;21.70;1.00;;;;;;2263981;61;1364;-86
2024/04/08 00:30:06;228150.00;0.76;394.37;0.00;0.00;0.62;;;;;21.70;1.00;;;;;;2263981;61;902;-87
2024/04/08 00:32:32;144327.00;0.48;250.03;32725.00;0.11;57.30;;;;;21.60;1.00;;;;;;2263936;61;957;-86
2024/04/08 00:34:59;148437.00;0.49;257.11;0.00;0.00;0.62;;;;;21.70;1.00;;;;;;2263949;61;1084;-87
2024/04/08 00:37:25;169716.00;0.57;293.78;0.00;0.00;0.62;;;;;21.60;1.00;;;;;;2263832;61;1391;-88
2024/04/08 00:39:52;287936.00;0.96;497.18;9487.00;0.03;17.06;;;;;21.60;1.00;;;;;;2263979;61;930;-87
2024/04/08 00:42:18;580432.00;1.93;1000.44;89189.00;0.30;154.91;;;;;21.50;1.00;;;;;;2263990;61;1924;-88
2024/04/08 00:44:45;442159.00;1.47;762.30;0.00;0.00;0.62;;;;;21.50;1.00;;;;;;2264109;61;970;-89
2024/04/08 00:47:13;343179.00;1.14;592.14;32178.00;0.11;56.35;;;;;21.60;1.00;;;;;;2263850;61;1363;-89
2024/04/08 00:49:42;757685.00;2.53;1307.42;123830.00;0.41;214.69;;;;;21.70;1.00;;;;;;2263924;61;959;-86
2024/04/08 00:52:11;372697.00;1.24;642.87;52687.00;0.18;91.83;;;;;21.60;1.00;;;;;;2263976;61;1716;-86
2024/04/08 00:54:40;399807.00;1.33;689.47;65066.00;0.22;113.23;;;;;21.60;1.00;;;;;;2263950;61;981;-86
2024/04/08 00:57:07;340130.00;1.13;586.90;18537.00;0.06;32.74;;;;;21.70;1.00;;;;;;2279074;40;3826;-84
2024/04/08 00:59:35;318386.00;1.06;549.52;0.00;0.00;0.62;;;;;20.80;1.00;;;;;;2291653;40;3601;-85
2024/04/08 01:02:01;196438.00;0.65;339.79;0.00;0.00;0.62;;;;;20.40;1.00;;;;;;2267785;61;1920;-87
2024/04/08 01:04:31;308636.00;1.03;532.76;27248.00;0.09;47.82;;;;;20.40;1.00;;;;;;2267810;61;1009;-87
2024/04/08 01:06:57;227845.00;0.76;393.84;0.00;0.00;0.62;;;;;20.60;1.00;;;;;;2267733;61;1458;-87
2024/04/08 01:11:54;880377.00;2.93;1521.68;47077.00;0.16;82.13;;;;;21.00;1.00;;;;;;2265849;61;1333;-88
2024/04/08 01:14:20;287885.00;0.96;497.09;0.00;0.00;0.62;;;;;20.80;1.00;;;;;;2263770;61;966;-86
2024/04/08 01:19:23;858198.00;2.86;1482.82;25538.00;0.09;44.86;;;;;20.80;1.00;;;;;;2277468;56;3659;-87
2024/04/08 01:24:26;943868.00;3.15;1633.30;14337.00;0.05;25.46;;;;;20.50;1.00;;;;;;2271712;40;3504;-87
2024/04/08 01:26:52;443060.00;1.48;763.85;2960.00;0.01;5.75;;;;;20.50;1.00;;;;;;2348098;41;3576;-88
2024/04/08 01:29:19;507280.00;1.69;874.36;0.00;0.00;0.62;;;;;20.70;1.00;;;;;;2318564;40;3663;-87
2024/04/08 01:31:45;336733.00;1.12;581.06;0.00;0.00;0.62;;;;;20.80;1.00;;;;;;2263767;61;1823;-88
2024/04/08 01:36:52;1259303.00;4.20;2197.82;0.00;0.00;0.62;;;;;21.00;1.00;;;;;;2282299;56;3605;-90
2024/04/08 01:39:18;311407.00;1.04;537.53;32436.00;0.11;56.80;;;;;21.00;1.00;;;;;;2273552;40;3725;-90
2024/04/08 01:44:21;220843.00;0.74;381.79;0.00;0.00;0.62;;;;;21.20;1.00;;;;;;2266177;56;3651;-87
2024/04/08 01:46:47;201792.00;0.67;349.01;0.00;0.00;0.62;;;;;21.10;1.00;;;;;;2270940;40;3619;-88
2024/04/08 01:49:14;328280.00;1.09;566.53;0.00;0.00;0.62;;;;;21.10;1.00;;;;;;2265653;56;3799;-87
2024/04/08 01:51:40;652973.00;2.18;1125.78;107568.00;0.36;186.63;;;;;21.00;1.00;;;;;;2264523;61;1536;-89
2024/04/08 01:54:12;391029.00;1.30;674.38;0.00;0.00;0.62;;;;;20.70;1.00;;;;;;2264497;61;829;-86
2024/04/08 01:56:38;160382.00;0.53;277.70;0.00;0.00;0.62;;;;;20.30;1.00;;;;;;2300733;41;3602;-86
2024/04/08 01:59:05;581990.00;1.94;1003.13;120363.00;0.40;208.71;;;;;20.30;1.00;;;;;;2268481;61;2098;-88
2024/04/08 02:09:20;221673.00;0.74;383.22;38237.00;0.13;66.84;;;;;20.70;1.00;;;;;;2429404;40;2205;-87
2024/04/08 02:11:46;705285.00;2.35;1216.40;90738.00;0.30;157.58;;;;;20.80;1.00;;;;;;2299365;41;3747;-86
2024/04/08 02:16:42;1106498.00;3.69;1922.05;17707.00;0.06;31.30;;;;;20.90;1.00;;;;;;2327242;41;3634;-89
2024/04/08 02:19:08;402377.00;1.34;693.89;33111.00;0.11;57.97;;;;;20.70;1.00;;;;;;2403006;40;3745;-90
2024/04/08 02:21:35;185511.00;0.62;320.98;33226.00;0.11;58.17;;;;;20.70;1.00;;;;;;2269210;61;1972;-88
2024/04/08 02:24:02;251620.00;0.84;434.74;16866.00;0.06;29.84;;;;;20.80;1.00;;;;;;2269259;61;1556;-87
2024/04/08 02:26:31;113996.00;0.38;197.72;0.00;0.00;0.62;;;;;20.20;1.00;;;;;;2269238;61;1185;-86
2024/04/08 02:28:57;465639.00;1.55;802.69;27755.00;0.09;48.70;;;;;20.00;1.00;;;;;;2269267;61;844;-88
2024/04/08 02:31:24;245063.00;0.82;423.46;520.00;0.00;1.52;;;;;19.90;1.00;;;;;;2269220;61;1739;-89
2024/04/08 02:33:52;290351.00;0.97;501.33;32488.00;0.11;56.89;;;;;19.90;1.00;;;;;;2269259;61;886;-88
2024/04/08 02:36:18;274703.00;0.92;474.43;0.00;0.00;0.62;;;;;19.90;1.00;;;;;;2269183;61;1210;-88
2024/04/08 02:38:45;646934.00;2.16;1115.33;93271.00;0.31;161.96;;;;;20.00;1.00;;;;;;2269193;61;1783;-87
2024/04/08 02:41:11;506234.00;1.69;872.56;45214.00;0.15;78.91;;;;;20.10;1.00;;;;;;2268216;61;1923;-90
2024/04/08 02:43:39;371149.00;1.24;640.21;79262.00;0.26;137.76;;;;;20.10;1.00;;;;;;2272914;55;3891;-86
2024/04/08 02:46:06;622964.00;2.08;1073.89;124111.00;0.41;215.17;;;;;19.70;1.00;;;;;;2269202;61;1176;-85
2024/04/08 02:48:33;462319.00;1.54;796.97;118051.00;0.39;204.72;;;;;19.50;1.00;;;;;;2325918;40;3820;-89
2024/04/08 02:58:40;1065923.00;3.55;1849.59;0.00;0.00;0.62;;;;;19.30;1.00;;;;;;2373110;40;3477;-87
2024/04/08 03:01:10;458150.00;1.53;789.80;0.00;0.00;0.62;;;;;19.10;1.00;;;;;;2315864;40;3744;-87
2024/04/08 03:13:59;1119193.00;3.73;1944.78;136154.00;0.45;235.94;;;;;18.60;1.00;;;;;;2365207;56;2207;-87
2024/04/08 03:16:25;858342.00;2.86;1483.07;85211.00;0.28;148.04;;;;;18.50;1.00;;;;;;2270963;40;3553;-88
2024/04/08 03:18:53;733152.00;2.44;1264.78;155063.00;0.52;268.53;;;;;18.40;1.00;;;;;;2308902;55;3781;-87
2024/04/08 03:21:19;815169.00;2.72;1407.59;103628.00;0.35;179.83;;;;;18.20;1.00;;;;;;2285287;40;3615;-85
2024/04/08 03:26:20;1119184.00;3.73;1944.77;66427.00;0.22;115.59;;;;;17.60;1.00;;;;;;2282994;55;3724;-89
2024/04/08 03:31:20;2077450.00;6.92;3784.59;203869.00;0.68;352.58;;;;;17.40;1.00;;;;;;2285795;41;3435;-86
2024/04/08 03:33:46;1549952.00;5.17;2737.47;166580.00;0.56;288.38;;;;;17.80;1.00;;;;;;2267515;61;1806;-86
2024/04/08 03:36:16;860990.00;2.87;1487.71;123596.00;0.41;214.29;;;;;18.10;1.00;;;;;;2267907;61;1410;-87
2024/04/08 03:38:43;996160.00;3.32;1725.67;69855.00;0.23;121.51;;;;;18.20;1.00;;;;;;2277084;55;3727;-87
2024/04/08 03:43:40;1726741.00;5.76;3077.50;156509.00;0.52;271.02;;;;;18.50;1.00;;;;;;2302000;55;3658;-86
2024/04/08 03:46:07;887575.00;2.96;1534.31;122155.00;0.41;211.80;;;;;18.70;1.00;;;;;;2270370;55;3727;-86
2024/04/08 03:51:12;1000721.00;3.34;1733.75;79547.00;0.27;138.25;;;;;18.70;1.00;;;;;;2267887;56;2147;-87
2024/04/08 03:56:15;1722110.00;5.74;3068.46;32476.00;0.11;56.87;;;;;18.70;1.00;;;;;;2272701;56;1834;-86
2024/04/08 03:58:41;875615.00;2.92;1513.33;68033.00;0.23;118.36;;;;;18.50;1.00;;;;;;2268029;61;1064;-88
2024/04/08 04:03:37;1907715.00;6.36;3436.52;0.00;0.00;0.62;;;;;17.60;1.00;;;;;;2275629;55;3648;-88
2024/04/08 04:06:04;965337.00;3.22;1671.17;32221.00;0.11;56.43;;;;;17.60;1.00;;;;;;2280889;41;3570;-86
2024/04/08 04:08:32;925918.00;3.09;1601.69;64805.00;0.22;112.78;;;;;17.70;1.00;;;;;;2284130;40;3807;-84
2024/04/08 04:10:59;1092313.00;3.64;1896.68;137486.00;0.46;238.24;;;;;18.00;1.00;;;;;;2272446;55;3679;-87
2024/04/08 04:13:26;869431.00;2.90;1502.49;58887.00;0.20;102.55;;;;;18.10;1.00;;;;;;2260898;61;1008;-88
2024/04/08 04:18:28;875138.00;2.92;1512.50;57968.00;0.19;100.96;;;;;18.30;1.00;;;;;;2306794;56;1916;-87
2024/04/08 04:20:55;815153.00;2.72;1407.56;29065.00;0.10;50.96;;;;;18.20;1.00;;;;;;2301217;40;3638;-86
2024/04/08 04:23:22;1418325.00;4.73;2490.35;18816.00;0.06;33.22;;;;;18.20;1.00;;;;;;2267490;61;2013;-88
2024/04/08 04:25:53;587539.00;1.96;1012.71;26753.00;0.09;46.96;;;;;18.30;1.00;;;;;;2268043;61;923;-87
2024/04/08 04:28:19;742995.00;2.48;1281.88;44067.00;0.15;76.92;;;;;18.20;1.00;;;;;;2267910;61;1328;-86
2024/04/08 04:30:53;838647.00;2.80;1448.61;27081.00;0.09;47.53;;;;;18.10;1.00;;;;;;2290178;41;3634;-86
2024/04/08 04:33:19;978106.00;3.26;1693.73;52151.00;0.17;90.91;;;;;18.20;1.00;;;;;;2267899;61;1681;-86
2024/04/08 04:35:52;1080566.00;3.60;1875.70;126916.00;0.42;220.01;;;;;17.90;1.00;;;;;;2276587;40;3773;-85
2024/04/08 04:38:18;696973.00;2.32;1201.99;51883.00;0.17;90.44;;;;;17.80;1.00;;;;;;2267820;61;1770;-86
2024/04/08 04:40:45;744439.00;2.48;1284.39;58388.00;0.19;101.69;;;;;17.90;1.00;;;;;;2315485;40;3785;-85
2024/04/08 04:43:13;711881.00;2.37;1227.85;26670.00;0.09;46.82;;;;;17.80;1.00;;;;;;2267959;61;2018;-86
2024/04/08 04:45:40;1108642.00;3.70;1925.89;69012.00;0.23;120.05;;;;;17.80;1.00;;;;;;2269490;55;3736;-86
2024/04/08 04:48:07;949707.00;3.17;1643.59;55784.00;0.19;97.19;;;;;17.80;1.00;;;;;;2268108;61;1322;-87
2024/04/08 04:50:34;469953.00;1.57;810.11;0.00;0.00;0.62;;;;;17.80;1.00;;;;;;2268001;61;1181;-86
2024/04/08 04:52:59;1394579.00;4.65;2446.27;61669.00;0.21;107.36;;;;;17.70;1.00;;;;;;2276805;41;3744;-86
2024/04/08 04:55:26;895600.00;2.99;1548.39;76230.00;0.25;132.52;;;;;17.70;1.00;;;;;;2264167;61;1018;-87
2024/04/08 04:57:52;974696.00;3.25;1687.71;8679.00;0.03;15.66;;;;;17.70;1.00;;;;;;2263805;61;1394;-85
2024/04/08 05:00:25;1096316.00;3.65;1903.84;161089.00;0.54;278.92;;;;;17.70;1.00;;;;;;2263948;61;986;-86
2024/04/08 05:02:51;709191.00;2.36;1223.18;13878.00;0.05;24.67;;;;;17.70;1.00;;;;;;2263970;61;2002;-86
2024/04/08 05:05:18;1197614.00;3.99;2085.91;95965.00;0.32;166.61;;;;;17.50;1.00;;;;;;2263821;61;1012;-84
2024/04/08 05:07:44;1101975.00;3.67;1913.96;212301.00;0.71;367.10;;;;;17.20;1.00;;;;;;2264100;61;1298;-87
2024/04/08 05:10:11;1195965.00;3.99;2082.93;106254.00;0.35;184.37;;;;;17.30;1.00;;;;;;2264033;61;1788;-86
2024/04/08 05:12:36;1098436.00;3.66;1907.63;192149.00;0.64;332.41;;;;;17.40;1.00;;;;;;2263933;61;1318;-86
2024/04/08 05:15:04;826145.00;2.75;1426.76;84853.00;0.28;147.42;;;;;17.30;1.00;;;;;;2264067;61;1110;-86
2024/04/08 05:17:31;511605.00;1.71;881.81;89453.00;0.30;155.36;;;;;17.50;1.00;;;;;;2263879;61;1387;-86
2024/04/08 05:20:01;609281.00;2.03;1050.25;116466.00;0.39;201.99;;;;;17.80;1.00;;;;;;2263741;61;1173;-84
2024/04/08 05:22:28;1036895.00;3.46;1797.93;174190.00;0.58;301.48;;;;;17.50;1.00;;;;;;2263710;61;1927;-84
2024/04/08 05:24:55;554752.00;1.85;956.15;75226.00;0.25;130.79;;;;;17.50;1.00;;;;;;2263728;61;1047;-85
2024/04/08 05:27:21;593644.00;1.98;1023.25;82485.00;0.27;143.33;;;;;17.80;1.00;;;;;;2263989;61;1281;-85
2024/04/08 05:29:48;527403.00;1.76;909.02;126966.00;0.42;220.10;;;;;17.90;1.00;;;;;;2263946;61;2170;-86
2024/04/08 05:32:14;375667.00;1.25;647.98;76142.00;0.25;132.37;;;;;18.00;1.00;;;;;;2264135;61;1127;-86
2024/04/08 05:34:42;531828.00;1.77;916.64;120694.00;0.40;209.28;;;;;18.40;1.00;;;;;;2263963;61;1010;-88
2024/04/08 05:37:08;797918.00;2.66;1377.49;193603.00;0.65;334.91;;;;;18.30;1.00;;;;;;2264082;61;1407;-85
2024/04/08 05:39:35;540515.00;1.80;931.61;78624.00;0.26;136.66;;;;;18.30;1.00;;;;;;2263919;61;1102;-86
2024/04/08 05:42:01;405198.00;1.35;698.74;77682.00;0.26;135.03;;;;;18.30;1.00;;;;;;2263997;61;2017;-84
2024/04/08 05:44:28;578214.00;1.93;996.62;103600.00;0.35;179.79;;;;;18.10;1.00;;;;;;2263908;61;1806;-85
2024/04/08 05:46:54;225565.00;0.75;389.92;80563.00;0.27;140.01;;;;;18.00;1.00;;;;;;2263815;61;1751;-85
2024/04/08 05:49:21;427602.00;1.43;737.26;79900.00;0.27;138.86;;;;;18.20;1.00;;;;;;2264170;61;1173;-84
2024/04/08 05:51:48;572965.00;1.91;987.56;135974.00;0.45;235.63;;;;;18.30;1.00;;;;;;2264624;61;1078;-85
2024/04/08 05:54:15;622801.00;2.08;1073.61;109756.00;0.37;190.41;;;;;18.50;1.00;;;;;;2264617;61;1137;-85
2024/04/08 05:56:41;658476.00;2.19;1135.30;78159.00;0.26;135.86;;;;;18.80;1.00;;;;;;2264624;61;1384;-85
2024/04/08 05:59:08;371360.00;1.24;640.57;85041.00;0.28;147.74;;;;;19.00;1.00;;;;;;2264541;61;1179;-86
2024/04/08 06:01:35;261957.00;0.87;452.51;88483.00;0.29;153.69;;;;;19.30;1.00;;;;;;2264768;61;985;-87
2024/04/08 06:04:03;60438.00;0.20;105.23;0.00;0.00;0.62;;;;;19.80;1.00;;;;;;2267697;56;3587;-86
2024/04/08 06:06:29;291199.00;0.97;502.79;90197.00;0.30;156.65;;;;;20.30;1.00;;;;;;2264466;61;1462;-86
2024/04/08 06:09:05;292038.00;0.97;504.23;0.00;0.00;0.62;;;;;20.10;1.00;;;;;;2264475;61;1239;-85
2024/04/08 06:11:31;313210.00;1.04;540.63;78990.00;0.26;137.29;;;;;20.00;1.00;;;;;;2264541;61;1131;-86
2024/04/08 06:13:58;341464.00;1.14;589.19;83311.00;0.28;144.76;;;;;20.30;1.00;;;;;;2282616;56;3781;-87
2024/04/08 06:16:24;429657.00;1.43;740.80;115222.00;0.38;199.84;;;;;21.00;1.00;;;;;;2268493;61;1266;-87
2024/04/08 06:18:51;554749.00;1.85;956.15;130456.00;0.43;226.12;;;;;21.60;1.00;;;;;;2268586;61;1063;-86
2024/04/08 06:21:17;571178.00;1.90;984.48;167216.00;0.56;289.47;;;;;22.00;1.00;;;;;;2268307;61;1757;-85
2024/04/08 06:23:43;272998.00;0.91;471.50;0.00;0.00;0.62;;;;;22.10;1.00;;;;;;2268381;61;2007;-86
2024/04/08 06:26:11;225191.00;0.75;389.28;78215.00;0.26;135.95;;;;;22.00;1.00;;;;;;2268665;61;1121;-86
2024/04/08 06:28:37;117670808.00;392.24;65999008.00;0.00;0.00;0.62;;;;;22.20;1.00;;;;;;2268444;61;1578;-86
2024/04/08 06:31:04;222417.00;0.74;384.50;23462.00;0.08;41.26;;;;;22.00;1.00;;;;;;2268546;61;1074;-86
2024/04/08 06:33:32;393044.00;1.31;677.85;47323.00;0.16;82.56;;;;;22.10;1.00;;;;;;2268491;61;987;-85
2024/04/08 06:35:58;601108.00;2.00;1036.13;78455.00;0.26;136.37;;;;;22.30;1.00;;;;;;2268336;61;1219;-87
2024/04/08 06:38:25;398804.00;1.33;687.75;56307.00;0.19;98.09;;;;;23.00;1.00;;;;;;2268362;61;1288;-87
2024/04/08 06:40:51;47587.00;0.16;83.01;0.00;0.00;0.62;;;;;23.30;1.00;;;;;;2268498;61;1213;-87
2024/04/08 06:43:19;161078.00;0.54;278.90;0.00;0.00;0.62;;;;;23.50;1.00;;;;;;2268580;61;2007;-87
2024/04/08 06:45:54;386511.00;1.29;666.62;52896.00;0.18;92.19;;;;;23.40;1.00;;;;;;2268414;61;1186;-86
2024/04/08 06:48:21;517544.00;1.73;892.03;103110.00;0.34;178.94;;;;;23.80;1.00;;;;;;2268242;61;1350;-85
2024/04/08 06:50:47;117231000.00;390.77;65261076.00;92237.00;0.31;160.17;;;;;24.10;1.00;;;;;;2268256;61;940;-86
2024/04/08 06:53:14;499584.00;1.67;861.11;54238.00;0.18;94.51;;;;;24.40;1.00;;;;;;2268398;61;1133;-85
2024/04/08 06:55:40;349919.00;1.17;603.72;0.00;0.00;0.62;;;;;24.90;1.00;;;;;;2268438;61;1104;-85
2024/04/08 06:58:09;312549.00;1.04;539.49;0.00;0.00;0.62;;;;;25.20;1.00;;;;;;2268111;61;1691;-85
2024/04/08 07:00:36;340626.00;1.14;587.75;58679.00;0.20;102.19;;;;;25.20;1.00;;;;;;2267932;61;1154;-85
2024/04/08 07:03:04;633953.00;2.11;1092.88;110528.00;0.37;191.74;;;;;25.40;1.00;;;;;;2268081;61;2013;-85
2024/04/08 07:05:30;360736.00;1.20;622.31;72802.00;0.24;126.60;;;;;26.00;1.00;;;;;;2268124;61;1213;-83
2024/04/08 07:07:57;137571.00;0.46;238.38;0.00;0.00;0.62;;;;;26.70;1.00;;;;;;2268177;61;1374;-86
2024/04/08 07:10:24;371946.00;1.24;641.58;63959.00;0.21;111.32;;;;;27.00;1.00;;;;;;2268205;61;1154;-85
2024/04/08 07:12:51;331462.00;1.10;572.00;26202.00;0.09;46.01;;;;;27.40;1.00;;;;;;2268073;61;972;-85
2024/04/08 07:15:19;240903.00;0.80;416.30;0.00;0.00;0.62;;;;;27.40;1.00;;;;;;2268327;61;1060;-85
2024/04/08 07:17:47;90792.00;0.30;157.68;0.00;0.00;0.62;;;;;27.10;1.00;;;;;;2268043;61;1285;-85
2024/04/08 07:20:13;362528.00;1.21;625.39;53665.00;0.18;93.52;;;;;27.70;1.00;;;;;;2268304;61;1031;-85
2024/04/08 07:22:40;659073.00;2.20;1136.34;131718.00;0.44;228.29;;;;;28.10;1.00;;;;;;2268253;61;2002;-85
2024/04/08 07:25:06;341315.00;1.14;588.93;30271.00;0.10;53.05;;;;;27.30;1.00;;;;;;2268097;61;1242;-85
2024/04/08 07:27:35;263471.00;0.88;455.12;0.00;0.00;0.62;;;;;27.00;1.00;;;;;;2267903;61;1377;-85
2024/04/08 07:30:01;102079.00;0.34;177.16;18582.00;0.06;32.81;;;;;27.20;1.00;;;;;;2268104;61;1225;-86
2024/04/08 07:32:29;459701.00;1.53;792.47;0.00;0.00;0.62;;;;;27.30;1.00;;;;;;2268273;61;1238;-86
2024/04/08 07:34:56;455744.00;1.52;785.66;0.00;0.00;0.62;;;;;27.90;1.00;;;;;;2268211;61;1157;-86
2024/04/08 07:37:23;336314.00;1.12;580.34;0.00;0.00;0.62;;;;;27.90;1.00;;;;;;2268191;61;1275;-86
2024/04/08 07:39:50;365878.00;1.22;631.15;90574.00;0.30;157.30;;;;;27.40;1.00;;;;;;2268012;61;1125;-86
2024/04/08 07:42:17;135402.00;0.45;234.64;0.00;0.00;0.62;;;;;28.20;1.00;;;;;;2268373;61;2014;-86
2024/04/08 07:44:43;170693.00;0.57;295.46;0.00;0.00;0.62;;;;;27.70;1.00;;;;;;2268171;61;1145;-87
2024/04/08 07:47:09;301107.00;1.00;519.82;0.00;0.00;0.62;;;;;28.10;1.00;;;;;;2268183;61;1298;-85
2024/04/08 07:49:35;58441.00;0.19;101.78;0.00;0.00;0.62;;;;;28.30;1.00;;;;;;2268374;61;1044;-87
2024/04/08 07:52:04;285102.00;0.95;492.31;39743.00;0.13;69.44;;;;;28.50;1.00;;;;;;2268091;61;1055;-86
2024/04/08 07:54:30;255915.00;0.85;442.12;0.00;0.00;0.62;;;;;28.80;1.00;;;;;;2268267;61;1689;-88
2024/04/08 07:56:57;444588.00;1.48;766.47;47730.00;0.16;83.26;;;;;29.30;1.00;;;;;;2268219;61;1535;-87
2024/04/08 07:59:23;445282.00;1.48;767.67;49628.00;0.17;86.54;;;;;29.30;1.00;;;;;;2268306;61;1150;-86
2024/04/08 08:01:51;242268.00;0.81;418.65;13097.00;0.04;23.31;;;;;29.80;1.00;;;;;;2268468;61;934;-87
2024/04/08 08:04:17;563180.00;1.88;970.68;47885.00;0.16;83.53;;;;;29.80;1.00;;;;;;2267840;61;2009;-86
2024/04/08 08:06:48;424304.00;1.41;731.59;18211.00;0.06;32.17;;;;;29.90;1.00;;;;;;2268003;61;1418;-87
2024/04/08 08:09:16;51476.00;0.17;89.74;0.00;0.00;0.62;;;;;29.70;1.00;;;;;;2268240;61;1201;-87
2024/04/08 08:11:43;620909.00;2.07;1070.34;63127.00;0.21;109.88;;;;;29.60;1.00;;;;;;2268313;61;1193;-89
2024/04/08 08:14:10;496926.00;1.66;856.53;98788.00;0.33;171.48;;;;;29.90;1.00;;;;;;2268207;61;1071;-88
2024/04/08 08:16:37;366590.00;1.22;632.38;82791.00;0.28;143.86;;;;;30.00;1.00;;;;;;2268217;61;1397;-87
2024/04/08 08:21:35;526053.00;1.75;906.69;13323.00;0.04;23.71;;;;;30.00;1.00;;;;;;2270289;61;1411;-87
2024/04/08 08:24:02;301534.00;1.01;520.56;76738.00;0.26;133.40;;;;;29.50;1.00;;;;;;2268068;61;1915;-86
2024/04/08 08:26:32;484405.00;1.61;834.98;29984.00;0.10;52.56;;;;;29.50;1.00;;;;;;2268133;61;1295;-89
2024/04/08 08:28:59;447490.00;1.49;771.47;158042.00;0.53;273.67;;;;;29.80;1.00;;;;;;2268198;61;1138;-88
2024/04/08 08:31:26;252012.00;0.84;435.41;0.00;0.00;0.62;;;;;29.90;1.00;;;;;;2268270;61;1242;-87
2024/04/08 08:33:52;403202.00;1.34;695.31;87697.00;0.29;152.33;;;;;30.00;1.00;;;;;;2268261;61;962;-87
2024/04/08 08:36:19;117290448.00;390.97;65360520.00;58022.00;0.19;101.06;;;;;30.00;1.00;;;;;;2268027;61;1538;-86
2024/04/08 08:38:45;567542.00;1.89;978.21;130580.00;0.44;226.33;;;;;29.80;1.00;;;;;;2268188;61;1048;-86
2024/04/08 08:41:12;413084.00;1.38;712.30;0.00;0.00;0.62;;;;;29.90;1.00;;;;;;2268111;61;1539;-87
2024/04/08 08:43:41;51240.00;0.17;89.33;0.00;0.00;0.62;;;;;29.60;1.00;;;;;;2268054;61;1993;-86
2024/04/08 08:46:09;408462.00;1.36;704.35;54512.00;0.18;94.99;;;;;29.30;1.00;;;;;;2268152;61;1157;-86
2024/04/08 08:48:36;138047.00;0.46;239.20;0.00;0.00;0.62;;;;;29.00;1.00;;;;;;2267951;61;1197;-86
2024/04/08 08:51:05;141839.00;0.47;245.74;0.00;0.00;0.62;;;;;29.00;1.00;;;;;;2268096;61;1120;-86
2024/04/08 08:53:31;178207.00;0.59;308.40;36053.00;0.12;63.06;;;;;29.10;1.00;;;;;;2268246;61;1130;-86
2024/04/08 08:55:59;268164.00;0.89;463.19;0.00;0.00;0.62;;;;;29.10;1.00;;;;;;2267984;61;1030;-86
2024/04/08 08:58:26;448457.00;1.49;773.13;20728.00;0.07;36.53;;;;;29.40;1.00;;;;;;2268219;61;1246;-89
2024/04/08 09:00:55;365909.00;1.22;631.21;0.00;0.00;0.62;;;;;29.50;1.00;;;;;;2268252;61;940;-88
2024/04/08 09:03:22;789024.00;2.63;1361.99;161636.00;0.54;279.86;;;;;29.50;1.00;;;;;;2268134;61;2012;-89
2024/04/08 09:05:54;302136.00;1.01;521.59;19768.00;0.07;34.87;;;;;29.50;1.00;;;;;;2268084;61;1298;-87
2024/04/08 09:08:20;200018.00;0.67;345.95;38860.00;0.13;67.92;;;;;29.60;1.00;;;;;;2268023;61;1424;-88
2024/04/08 09:10:48;349875.00;1.17;603.65;40418.00;0.13;70.61;;;;;29.00;1.00;;;;;;2268143;61;1193;-85
2024/04/08 09:13:18;457442.00;1.52;788.58;98078.00;0.33;170.25;;;;;28.30;1.00;;;;;;2324197;55;3757;-85
2024/04/08 09:15:45;252374.00;0.84;436.03;0.00;0.00;0.62;;;;;27.90;1.00;;;;;;2268003;61;1033;-88
2024/04/08 09:18:12;406813.00;1.36;701.52;43455.00;0.14;75.87;;;;;28.00;1.00;;;;;;2267941;61;1397;-86
2024/04/08 09:20:39;423542.00;1.41;730.28;27613.00;0.09;48.45;;;;;27.90;1.00;;;;;;2267697;61;1026;-84
2024/04/08 09:23:06;205919.00;0.69;356.11;36182.00;0.12;63.28;;;;;27.70;1.00;;;;;;2267863;61;2001;-86
2024/04/08 09:25:32;600815.00;2.00;1035.63;108396.00;0.36;188.06;;;;;27.50;1.00;;;;;;2268528;61;2018;-85
2024/04/08 09:27:59;468001.00;1.56;806.75;156400.00;0.52;270.84;;;;;27.40;1.00;;;;;;2268397;61;1301;-84
2024/04/08 09:30:26;213630.00;0.71;369.38;18124.00;0.06;32.02;;;;;27.40;1.00;;;;;;2268453;61;1102;-85
2024/04/08 09:32:52;249905.00;0.83;431.79;44921.00;0.15;78.40;;;;;27.90;1.00;;;;;;2268277;61;1585;-86
2024/04/08 09:35:20;602749.00;2.01;1038.97;91510.00;0.31;158.91;;;;;28.20;1.00;;;;;;2268228;61;1237;-88
2024/04/08 09:37:47;585146.00;1.95;1008.58;57313.00;0.19;99.83;;;;;28.30;1.00;;;;;;2282900;56;3759;-85
2024/04/08 09:40:15;397174.00;1.32;684.95;47558.00;0.16;82.96;;;;;28.00;1.00;;;;;;2268363;61;1182;-85
2024/04/08 09:42:42;552466.00;1.84;952.21;141170.00;0.47;244.59;;;;;28.40;1.00;;;;;;2267743;61;1948;-85
2024/04/08 09:45:11;256016.00;0.85;442.30;92195.00;0.31;160.10;;;;;28.60;1.00;;;;;;2267952;61;1620;-86
2024/04/08 09:47:38;148739.00;0.50;257.63;22847.00;0.08;40.20;;;;;28.90;1.00;;;;;;2268573;61;1601;-86
2024/04/08 09:50:06;192609.00;0.64;333.20;0.00;0.00;0.62;;;;;28.00;1.00;;;;;;2268672;61;1092;-86
2024/04/08 09:52:33;421394.00;1.40;726.59;121615.00;0.41;210.87;;;;;27.70;1.00;;;;;;2268726;61;912;-85
2024/04/08 09:55:00;196746.00;0.66;340.32;0.00;0.00;0.62;;;;;27.70;1.00;;;;;;2268640;61;1055;-85
2024/04/08 09:57:27;207246.00;0.69;358.40;15600.00;0.05;27.65;;;;;27.90;1.00;;;;;;2268146;61;1423;-85
2024/04/08 09:59:56;117108592.00;390.36;65056688.00;96177.00;0.32;166.97;;;;;28.30;1.00;;;;;;2268541;61;1059;-85
2024/04/08 10:02:31;422707.00;1.41;728.84;40857.00;0.14;71.37;;;;;28.50;1.00;;;;;;2268863;61;1043;-84
2024/04/08 10:05:04;241574.00;0.81;417.46;0.00;0.00;0.62;;;;;28.00;1.00;;;;;;2268607;61;2005;-85
2024/04/08 10:07:31;183200.00;0.61;317.00;0.00;0.00;0.62;;;;;28.00;1.00;;;;;;2268591;61;1396;-84
2024/04/08 10:10:01;166170.00;0.55;287.67;12254.00;0.04;21.85;;;;;28.10;1.00;;;;;;2268427;61;1338;-85
2024/04/08 10:12:31;256978.00;0.86;443.95;35870.00;0.12;62.74;;;;;28.50;1.00;;;;;;2268275;61;1118;-85
2024/04/08 10:15:08;263153.00;0.88;454.57;0.00;0.00;0.62;;;;;28.50;1.00;;;;;;2267729;61;1131;-85
2024/04/08 10:17:34;813416.00;2.71;1404.53;45734.00;0.15;79.81;;;;;28.60;1.00;;;;;;2267751;61;1326;-86
2024/04/08 10:20:02;631362.00;2.10;1088.40;53338.00;0.18;92.96;;;;;28.90;1.00;;;;;;2268056;61;1097;-85
2024/04/08 10:22:29;175793.00;0.59;304.24;0.00;0.00;0.62;;;;;29.00;1.00;;;;;;2268572;61;1654;-87
2024/04/08 10:24:55;759454.00;2.53;1310.50;0.00;0.00;0.62;;;;;28.70;1.00;;;;;;2268534;61;1959;-85
2024/04/08 10:27:25;413858.00;1.38;713.63;91297.00;0.30;158.55;;;;;28.60;1.00;;;;;;2268565;61;1371;-87
2024/04/08 10:29:57;419089.00;1.40;722.62;6589.00;0.02;12.04;;;;;28.60;1.00;;;;;;2268522;61;1126;-85
2024/04/08 10:32:23;276716.00;0.92;477.89;18128.00;0.06;32.03;;;;;28.40;1.00;;;;;;2268513;61;1144;-86